Terminal Aerodrome Forecast
Issued by NWS State College, PA

Home | Current Version | Previous Version | Text Only | Print | Product List | Glossary On
Versions: 1 2 3 4 5 6 7 8 9 10 11 12 13 14 15 16 17 18 19 20 21 22 23 24 25 26 27 28
000
FTUS41 KCTP 251740
TAFIPT
TAF
KIPT 251740Z 2518/2618 26014G18KT P6SM BKN040 BKN070
     FM252000 25015G25KT P6SM SCT035 BKN050
     FM260200 28014G24KT P6SM VCSH BKN035
     FM261500 30018G32KT P6SM BKN035=

USA.gov is the U.S. government's official web portal to all federal, state and local government web resources and services.